Time;durP1;ratioP1;P1;durP2;ratioP2;P2;SDS_P1;SDS_P2;PMS_P1;PMS_P2;Temp;Humidity;BMP_temperature;BMP_pressure;BME280_temperature;BME280_humidity;BME280_pressure;Samples;Min_cycle;Max_cycle;Signal;HPM_P1;HPM_P2
2022/11/30 00:02:15;;;;;;;4.00;3.60;;;19.30;42.80;;;;;;4978063;28;20264;-62
2022/11/30 00:04:41;;;;;;;3.90;3.60;;;19.30;42.80;;;;;;4992856;28;20227;-63
2022/11/30 00:07:07;;;;;;;3.93;3.63;;;19.30;42.80;;;;;;4997576;28;20680;-63
2022/11/30 00:09:32;;;;;;;4.27;3.97;;;19.30;42.80;;;;;;4994564;28;20238;-64
2022/11/30 00:11:58;;;;;;;3.90;3.60;;;19.30;42.90;;;;;;4995165;28;20219;-63
2022/11/30 00:14:23;;;;;;;4.70;4.40;;;19.30;42.90;;;;;;4968655;28;20220;-62
2022/11/30 00:16:49;;;;;;;4.20;3.90;;;19.30;42.80;;;;;;4994788;28;20285;-62
2022/11/30 00:19:14;;;;;;;4.63;4.33;;;19.30;42.90;;;;;;4996284;28;20227;-63
2022/11/30 00:21:40;;;;;;;3.73;3.53;;;19.30;42.80;;;;;;4987749;28;20293;-63
2022/11/30 00:24:06;;;;;;;4.43;4.13;;;19.30;42.80;;;;;;4992800;28;20663;-62
2022/11/30 00:26:31;;;;;;;4.37;4.07;;;19.30;42.80;;;;;;4995198;28;20242;-63
2022/11/30 00:28:57;;;;;;;3.83;3.63;;;19.30;42.80;;;;;;4994325;28;20231;-62
2022/11/30 00:31:23;;;;;;;4.50;4.20;;;19.20;43.50;;;;;;4994307;28;20866;-62
2022/11/30 00:33:49;;;;;;;3.90;3.70;;;19.30;42.80;;;;;;4992724;28;20235;-62
2022/11/30 00:36:17;;;;;;;4.27;3.97;;;19.30;43.30;;;;;;4994747;28;20926;-63
2022/11/30 00:38:43;;;;;;;4.30;4.00;;;19.30;42.80;;;;;;4993983;28;20684;-62
2022/11/30 00:41:09;;;;;;;3.90;3.63;;;19.30;42.80;;;;;;4993868;28;20421;-63
2022/11/30 00:43:35;;;;;;;4.43;4.13;;;19.30;42.90;;;;;;4994149;28;20647;-62
2022/11/30 00:46:01;;;;;;;4.40;4.00;;;19.30;42.80;;;;;;4996328;28;20520;-63
2022/11/30 00:48:26;;;;;;;4.30;4.00;;;19.20;42.70;;;;;;4982787;28;20712;-63
2022/11/30 00:50:52;;;;;;;4.00;3.70;;;19.20;42.70;;;;;;4969329;28;20226;-63
2022/11/30 00:53:18;;;;;;;3.97;3.73;;;19.20;42.80;;;;;;4971996;28;20208;-64
2022/11/30 00:55:44;;;;;;;4.17;3.87;;;19.30;42.80;;;;;;4983223;28;20374;-65
2022/11/30 00:58:10;;;;;;;4.07;3.77;;;19.20;42.70;;;;;;4978092;28;20436;-65
2022/11/30 01:00:36;;;;;;;4.87;4.50;;;19.30;42.80;;;;;;4971039;28;20462;-64
2022/11/30 01:03:03;;;;;;;4.17;3.87;;;19.30;42.80;;;;;;4973645;28;20458;-64
2022/11/30 01:05:31;;;;;;;3.73;3.43;;;19.30;42.80;;;;;;4980536;28;20269;-64
2022/11/30 01:07:59;;;;;;;4.30;3.47;;;19.20;42.70;;;;;;4978605;28;20462;-64
2022/11/30 01:10:24;;;;;;;4.00;3.70;;;19.30;42.80;;;;;;4976999;28;20531;-64
2022/11/30 01:12:50;;;;;;;4.63;4.33;;;19.20;42.70;;;;;;4976879;28;20495;-64
2022/11/30 01:15:15;;;;;;;4.73;4.33;;;19.20;42.70;;;;;;4974541;28;20698;-64
2022/11/30 01:17:41;;;;;;;4.50;4.20;;;19.20;42.70;;;;;;4983211;28;20234;-64
2022/11/30 01:20:07;;;;;;;4.40;4.00;;;19.30;42.80;;;;;;4970471;28;20311;-63
2022/11/30 01:22:33;;;;;;;4.60;4.30;;;19.20;42.70;;;;;;4974934;28;20775;-64
2022/11/30 01:24:58;;;;;;;4.20;3.90;;;19.20;42.70;;;;;;4970892;28;20220;-66
2022/11/30 01:27:24;;;;;;;4.40;4.07;;;19.30;42.80;;;;;;4979968;28;20456;-63
2022/11/30 01:29:50;;;;;;;4.80;4.40;;;19.20;42.70;;;;;;4976485;28;20232;-63
2022/11/30 01:32:15;;;;;;;4.43;4.13;;;19.30;42.80;;;;;;4981177;28;20291;-64
2022/11/30 01:34:40;;;;;;;3.60;3.40;;;19.20;42.70;;;;;;4968031;28;20232;-63
2022/11/30 01:37:06;;;;;;;4.20;3.83;;;19.20;42.70;;;;;;4976379;28;20220;-63
2022/11/30 01:39:31;;;;;;;4.93;4.50;;;19.20;42.70;;;;;;4975032;28;20221;-64
2022/11/30 01:41:57;;;;;;;4.07;3.73;;;19.30;42.80;;;;;;4978842;28;20295;-63
2022/11/30 01:44:25;;;;;;;4.53;4.13;;;19.20;42.70;;;;;;4978375;28;20232;-63
2022/11/30 01:46:57;;;;;;;4.00;3.70;;;19.20;42.70;;;;;;4973963;28;20239;-64
2022/11/30 01:49:35;;;;;;;3.53;3.33;;;19.20;42.70;;;;;;4984439;28;20457;-64
2022/11/30 01:52:10;;;;;;;4.13;3.87;;;19.30;42.80;;;;;;4981714;28;20512;-64
2022/11/30 01:54:41;;;;;;;3.60;3.40;;;19.20;42.70;;;;;;4975055;28;20454;-63
2022/11/30 01:57:13;;;;;;;4.00;3.67;;;19.20;42.70;;;;;;4988290;28;20443;-63
2022/11/30 01:59:39;;;;;;;4.10;3.80;;;19.20;42.80;;;;;;4987893;28;20523;-62
2022/11/30 02:02:04;;;;;;;3.90;3.70;;;19.20;42.80;;;;;;4980637;28;21482;-63
2022/11/30 02:04:35;;;;;;;4.40;4.10;;;19.20;42.70;;;;;;4973911;28;20696;-63
2022/11/30 02:07:03;;;;;;;4.50;4.10;;;19.20;42.80;;;;;;4973296;28;20302;-63
2022/11/30 02:09:30;;;;;;;4.67;4.37;;;19.20;42.70;;;;;;4979218;28;20469;-63
2022/11/30 02:11:56;;;;;;;4.33;3.93;;;19.20;42.70;;;;;;4986481;28;20439;-64
2022/11/30 02:14:36;;;;;;;4.57;3.83;;;19.20;42.70;;;;;;4976230;28;20462;-63
2022/11/30 02:17:34;;;;;;;4.17;3.87;;;19.20;42.80;;;;;;4986697;28;20518;-63
2022/11/30 02:20:25;;;;;;;4.40;4.10;;;19.20;42.70;;;;;;4995635;28;20446;-63
2022/11/30 02:23:03;;;;;;;4.30;4.00;;;19.20;42.80;;;;;;4997135;28;20556;-62
2022/11/30 02:25:56;;;;;;;4.77;4.37;;;19.20;42.80;;;;;;4996368;28;20498;-63
2022/11/30 02:29:05;;;;;;;4.33;3.93;;;19.20;42.80;;;;;;4983087;28;21008;-63
2022/11/30 02:31:41;;;;;;;3.90;3.60;;;19.20;42.80;;;;;;4979884;28;20416;-63
2022/11/30 02:34:11;;;;;;;4.23;3.93;;;19.20;42.80;;;;;;4979460;28;20444;-63
2022/11/30 02:36:37;;;;;;;4.30;3.90;;;19.20;42.80;;;;;;4978275;28;20443;-64
2022/11/30 02:39:04;;;;;;;4.10;3.80;;;19.20;42.80;;;;;;4993219;28;20479;-64
2022/11/30 02:41:39;;;;;;;4.37;4.07;;;19.20;42.80;;;;;;5002995;28;20231;-64
2022/11/30 02:44:07;;;;;;;4.13;3.83;;;19.10;42.70;;;;;;4988512;28;20448;-63
2022/11/30 02:46:39;;;;;;;4.30;3.90;;;19.20;43.60;;;;;;4986429;28;20476;-64
2022/11/30 02:49:12;;;;;;;4.63;4.23;;;19.20;42.80;;;;;;4990238;28;20453;-63
2022/11/30 02:51:40;;;;;;;5.33;4.83;;;19.20;42.80;;;;;;4997607;28;20538;-63
2022/11/30 02:54:06;;;;;;;4.60;4.30;;;19.20;42.80;;;;;;5000903;28;20427;-63
2022/11/30 02:56:33;;;;;;;4.47;4.07;;;19.20;42.80;;;;;;4990883;28;20992;-63
2022/11/30 02:58:58;;;;;;;5.60;4.03;;;19.20;42.80;;;;;;4996775;28;21278;-64
2022/11/30 03:01:24;;;;;;;3.93;3.60;;;19.20;42.80;;;;;;4995051;28;20447;-63
2022/11/30 03:03:49;;;;;;;4.90;4.50;;;19.20;42.80;;;;;;4999227;28;20219;-63
2022/11/30 03:06:15;;;;;;;4.40;4.07;;;19.20;42.80;;;;;;4994322;28;20679;-64
2022/11/30 03:08:40;;;;;;;4.30;4.00;;;19.20;42.90;;;;;;4995946;28;20218;-63
2022/11/30 03:11:06;;;;;;;4.00;3.70;;;19.20;42.80;;;;;;4997888;28;20675;-63
2022/11/30 03:13:33;;;;;;;4.60;4.20;;;19.20;42.90;;;;;;4981033;28;20228;-63
2022/11/30 03:16:05;;;;;;;4.10;3.80;;;19.20;42.80;;;;;;4976584;28;20277;-63
2022/11/30 03:18:32;;;;;;;4.50;4.20;;;19.20;42.80;;;;;;4998891;28;20440;-63
2022/11/30 03:20:57;;;;;;;3.80;3.50;;;19.20;42.90;;;;;;5003188;28;20514;-63
2022/11/30 03:23:22;;;;;;;4.10;3.80;;;19.20;42.90;;;;;;4987896;28;20469;-64
2022/11/30 03:25:48;;;;;;;4.87;4.47;;;19.20;42.90;;;;;;4978613;28;22841;-64
2022/11/30 03:28:13;;;;;;;3.63;3.33;;;19.20;42.90;;;;;;4984499;28;20679;-63
2022/11/30 03:30:39;;;;;;;4.30;4.00;;;19.20;42.90;;;;;;4974251;28;20221;-64
2022/11/30 03:33:05;;;;;;;4.47;4.17;;;19.20;42.80;;;;;;4982782;28;20254;-63
2022/11/30 03:35:30;;;;;;;3.70;3.40;;;19.20;43.70;;;;;;4984713;28;20228;-64
2022/11/30 03:37:56;;;;;;;4.83;4.53;;;19.20;42.90;;;;;;4983742;28;20243;-63
2022/11/30 03:40:21;;;;;;;4.30;3.90;;;19.10;42.80;;;;;;4978169;28;20342;-63
2022/11/30 03:42:47;;;;;;;3.57;3.37;;;19.20;42.90;;;;;;4978788;28;20227;-64
2022/11/30 03:45:13;;;;;;;4.17;3.87;;;19.20;42.90;;;;;;4977240;28;20590;-63
2022/11/30 03:47:38;;;;;;;4.47;4.17;;;19.20;42.80;;;;;;4983260;28;20315;-64
2022/11/30 03:50:04;;;;;;;3.90;3.70;;;19.20;42.80;;;;;;4974042;28;20420;-63
2022/11/30 03:52:30;;;;;;;3.90;3.60;;;19.10;42.80;;;;;;4980402;28;20228;-63
2022/11/30 03:54:55;;;;;;;4.20;3.90;;;19.20;42.90;;;;;;4981487;28;20443;-63
2022/11/30 03:57:21;;;;;;;4.30;4.00;;;19.20;42.90;;;;;;4976218;28;20942;-63
2022/11/30 03:59:46;;;;;;;4.60;3.60;;;19.20;42.90;;;;;;4992250;28;20683;-64
2022/11/30 04:02:12;;;;;;;4.43;4.13;;;19.20;42.90;;;;;;4995674;28;20705;-64
2022/11/30 04:04:37;;;;;;;4.03;3.73;;;19.20;42.80;;;;;;4999293;28;20733;-64
2022/11/30 04:07:03;;;;;;;3.67;3.47;;;19.20;42.90;;;;;;4995775;28;20215;-64
2022/11/30 04:09:28;;;;;;;3.30;3.10;;;19.20;42.90;;;;;;4988188;28;20244;-64
2022/11/30 04:11:54;;;;;;;3.43;3.20;;;19.20;42.90;;;;;;4980643;28;20682;-63
2022/11/30 04:14:19;;;;;;;4.13;3.83;;;19.10;42.80;;;;;;4981779;28;20224;-63
2022/11/30 04:16:45;;;;;;;4.17;3.87;;;19.20;42.90;;;;;;4977167;28;20723;-63
2022/11/30 04:19:10;;;;;;;3.40;3.20;;;19.10;42.70;;;;;;4980762;28;20730;-63
2022/11/30 04:21:36;;;;;;;4.47;4.17;;;19.20;42.80;;;;;;4983147;28;20220;-63
2022/11/30 04:24:02;;;;;;;3.80;3.60;;;19.20;42.80;;;;;;4992465;28;20227;-64
2022/11/30 04:26:27;;;;;;;3.90;3.60;;;19.20;42.80;;;;;;4997429;28;20215;-63
2022/11/30 04:28:53;;;;;;;3.70;3.50;;;19.20;42.80;;;;;;5000554;28;20239;-64
2022/11/30 04:31:18;;;;;;;3.60;3.40;;;19.20;42.80;;;;;;4992911;28;23134;-64
2022/11/30 04:33:44;;;;;;;3.07;2.87;;;19.20;42.80;;;;;;4994933;28;20231;-64
2022/11/30 04:36:18;;;;;;;3.90;3.60;;;19.20;42.90;;;;;;4991792;28;20298;-64
2022/11/30 04:38:44;;;;;;;3.63;3.40;;;19.10;42.70;;;;;;4993613;28;20423;-63
2022/11/30 04:41:09;;;;;;;3.30;3.10;;;19.20;42.80;;;;;;5006204;28;21086;-63
2022/11/30 04:43:36;;;;;;;3.93;3.73;;;19.10;42.70;;;;;;4978728;28;20623;-64
2022/11/30 04:46:02;;;;;;;3.73;3.43;;;19.20;42.80;;;;;;4974186;28;20242;-64
2022/11/30 04:48:28;;;;;;;3.70;3.50;;;19.20;42.90;;;;;;4993875;28;20439;-64
2022/11/30 04:50:58;;;;;;;4.20;3.90;;;19.20;42.80;;;;;;4996668;28;20453;-64
2022/11/30 04:53:23;;;;;;;3.77;3.57;;;19.20;42.90;;;;;;4991817;28;20211;-64
2022/11/30 04:55:49;;;;;;;3.87;3.57;;;19.20;42.80;;;;;;4984160;28;20449;-64
2022/11/30 04:58:14;;;;;;;3.77;3.57;;;19.20;42.90;;;;;;4999504;28;20227;-63
2022/11/30 05:00:40;;;;;;;4.10;3.90;;;19.20;42.70;;;;;;4996625;28;20220;-64
2022/11/30 05:03:05;;;;;;;3.87;3.67;;;19.20;42.80;;;;;;4995967;28;21616;-64
2022/11/30 05:05:31;;;;;;;3.37;3.07;;;19.20;42.70;;;;;;4994849;28;20223;-64
2022/11/30 05:07:58;;;;;;;3.97;3.70;;;19.20;42.70;;;;;;4999121;28;20242;-64
2022/11/30 05:10:25;;;;;;;3.70;3.50;;;19.20;42.60;;;;;;4995310;28;20238;-64
2022/11/30 05:12:51;;;;;;;3.23;3.03;;;19.20;42.60;;;;;;4993187;28;20436;-64
2022/11/30 05:15:17;;;;;;;3.97;3.77;;;19.20;42.60;;;;;;4996664;28;20527;-63
2022/11/30 05:17:42;;;;;;;3.50;3.20;;;19.30;42.70;;;;;;5000241;28;20306;-64
2022/11/30 05:20:08;;;;;;;3.77;3.57;;;19.20;42.60;;;;;;4993835;28;20309;-64
2022/11/30 05:22:34;;;;;;;3.50;3.30;;;19.30;42.60;;;;;;4996664;28;20675;-65
2022/11/30 05:25:00;;;;;;;4.00;3.80;;;19.30;42.60;;;;;;4994045;28;20215;-64
2022/11/30 05:27:25;;;;;;;3.67;3.47;;;19.30;42.50;;;;;;4995599;28;20251;-65
2022/11/30 05:29:51;;;;;;;3.30;3.10;;;19.30;42.50;;;;;;4999518;28;20332;-64
2022/11/30 05:32:16;;;;;;;4.17;3.87;;;19.30;42.50;;;;;;4977534;28;20222;-66
2022/11/30 05:34:42;;;;;;;3.80;3.60;;;19.30;42.50;;;;;;4991884;28;20226;-62
2022/11/30 05:37:07;;;;;;;3.67;3.47;;;19.30;42.30;;;;;;4993871;28;20219;-65
2022/11/30 05:39:33;;;;;;;3.77;3.57;;;19.40;42.40;;;;;;4991018;28;20236;-64
2022/11/30 05:41:58;;;;;;;4.47;4.17;;;19.40;42.30;;;;;;4995250;28;20811;-63
2022/11/30 05:44:24;;;;;;;3.50;3.30;;;19.40;42.30;;;;;;4987424;28;20235;-64
2022/11/30 05:46:49;;;;;;;3.93;3.73;;;19.30;42.20;;;;;;4977653;28;20228;-65
2022/11/30 05:49:15;;;;;;;4.17;3.87;;;19.40;42.30;;;;;;4982112;28;20216;-64
2022/11/30 05:51:40;;;;;;;3.60;3.40;;;19.40;42.30;;;;;;4993601;28;20216;-64
2022/11/30 05:54:06;;;;;;;3.83;3.50;;;19.40;42.30;;;;;;4997220;28;20223;-65
2022/11/30 05:56:32;;;;;;;3.17;2.97;;;19.40;42.30;;;;;;4982358;28;20703;-65
2022/11/30 05:58:57;;;;;;;4.33;4.03;;;19.40;42.30;;;;;;4985486;28;20639;-64
2022/11/30 06:01:27;;;;;;;3.57;3.37;;;19.40;42.30;;;;;;4985571;28;20677;-64
2022/11/30 06:03:53;;;;;;;3.80;3.50;;;19.40;42.20;;;;;;5001187;28;20220;-64
2022/11/30 06:06:20;;;;;;;3.40;3.20;;;19.40;42.20;;;;;;5003115;28;22846;-64
2022/11/30 06:08:48;;;;;;;3.40;3.20;;;19.40;42.30;;;;;;4996666;28;20469;-64
2022/11/30 06:11:15;;;;;;;3.63;3.43;;;19.40;42.30;;;;;;4990411;28;20460;-63
2022/11/30 06:13:41;;;;;;;3.63;3.33;;;19.40;42.20;;;;;;4978163;28;20458;-64
2022/11/30 06:16:08;;;;;;;3.80;3.50;;;19.40;42.30;;;;;;4984070;28;20443;-64
2022/11/30 06:18:34;;;;;;;3.03;2.83;;;19.40;42.30;;;;;;4984077;28;20251;-65
2022/11/30 06:21:06;;;;;;;4.07;3.17;;;19.40;42.30;;;;;;4973244;28;20431;-62
2022/11/30 06:23:31;;;;;;;3.23;3.03;;;19.40;43.00;;;;;;4991462;28;20460;-61
2022/11/30 06:25:57;;;;;;;3.60;3.30;;;19.40;42.30;;;;;;4992488;28;20524;-61
2022/11/30 06:28:23;;;;;;;3.63;3.30;;;19.40;42.30;;;;;;4986021;28;20219;-61
2022/11/30 06:30:49;;;;;;;4.30;3.90;;;19.40;42.30;;;;;;4999330;28;21274;-62
2022/11/30 06:33:15;;;;;;;3.80;3.43;;;19.40;42.30;;;;;;4995563;28;20431;-61
2022/11/30 06:35:45;;;;;;;4.17;3.50;;;19.40;42.30;;;;;;4984196;28;20220;-63
2022/11/30 06:38:11;;;;;;;3.60;3.40;;;19.40;42.30;;;;;;4985085;28;20227;-64
2022/11/30 06:40:37;;;;;;;3.87;3.57;;;19.40;42.30;;;;;;4982722;28;20952;-64
2022/11/30 06:43:02;;;;;;;3.10;2.90;;;19.40;42.30;;;;;;4972516;28;20492;-64
2022/11/30 06:45:28;;;;;;;3.60;3.40;;;19.40;42.30;;;;;;4988235;28;20329;-63
2022/11/30 06:47:55;;;;;;;3.30;3.10;;;19.40;42.30;;;;;;4980104;28;20267;-63
2022/11/30 06:50:21;;;;;;;3.80;3.50;;;19.40;42.30;;;;;;4983735;28;20314;-64
2022/11/30 06:52:47;;;;;;;4.00;3.70;;;19.40;42.30;;;;;;4985943;28;20969;-63
2022/11/30 06:55:12;;;;;;;4.00;3.70;;;19.40;42.40;;;;;;4980380;28;20462;-63
2022/11/30 06:57:38;;;;;;;5.50;5.07;;;19.40;42.40;;;;;;4978846;28;20231;-64
2022/11/30 07:00:04;;;;;;;3.40;3.10;;;19.40;42.40;;;;;;4978061;28;20235;-64
2022/11/30 07:02:30;;;;;;;3.53;3.23;;;19.40;42.40;;;;;;4982378;28;20228;-64
2022/11/30 07:04:55;;;;;;;4.00;3.70;;;19.40;42.40;;;;;;4980290;28;20428;-64
2022/11/30 07:07:21;;;;;;;3.73;3.43;;;19.40;42.40;;;;;;4984656;28;20307;-64
2022/11/30 07:09:46;;;;;;;4.13;3.77;;;19.40;42.40;;;;;;4986481;28;20455;-64
2022/11/30 07:12:12;;;;;;;4.00;3.20;;;19.40;42.40;;;;;;4987497;28;20657;-65
2022/11/30 07:14:38;;;;;;;3.90;3.33;;;19.40;42.40;;;;;;4983462;28;20587;-64
2022/11/30 07:17:03;;;;;;;3.03;2.83;;;19.40;42.50;;;;;;4979384;28;20316;-64
2022/11/30 07:19:30;;;;;;;3.20;3.00;;;19.40;42.40;;;;;;4991579;28;20310;-64
2022/11/30 07:21:55;;;;;;;3.73;3.40;;;19.40;42.40;;;;;;4983189;28;20208;-64
2022/11/30 07:27:06;;;;;;;3.83;3.53;;;19.40;42.40;;;;;;4981325;28;20235;-63
2022/11/30 07:29:31;;;;;;;3.67;3.37;;;19.40;42.40;;;;;;4981340;28;20917;-64
2022/11/30 07:31:57;;;;;;;3.23;3.03;;;19.40;42.40;;;;;;4979417;28;20216;-64
2022/11/30 07:34:23;;;;;;;3.07;2.87;;;19.40;42.50;;;;;;4981436;28;20235;-63
2022/11/30 07:36:48;;;;;;;3.40;3.20;;;19.30;42.30;;;;;;4978251;28;20773;-64
2022/11/30 07:39:14;;;;;;;3.73;3.33;;;19.30;42.30;;;;;;4986513;28;20253;-63
2022/11/30 07:41:41;;;;;;;3.00;2.80;;;19.40;42.40;;;;;;4996010;28;20230;-64
2022/11/30 07:44:07;;;;;;;3.13;2.93;;;19.40;42.40;;;;;;4980821;28;20425;-64
2022/11/30 07:46:37;;;;;;;3.90;3.70;;;19.40;42.40;;;;;;4981419;28;20611;-64
2022/11/30 07:49:04;;;;;;;3.90;3.67;;;19.30;42.30;;;;;;4988251;28;20485;-64
2022/11/30 07:51:30;;;;;;;3.20;2.90;;;19.40;42.40;;;;;;4988090;28;20429;-64
2022/11/30 07:53:57;;;;;;;3.60;3.30;;;19.40;42.40;;;;;;4984170;28;20439;-64
2022/11/30 07:56:24;;;;;;;3.13;2.93;;;19.40;42.40;;;;;;4987876;28;20419;-64
2022/11/30 07:58:53;;;;;;;3.43;3.13;;;19.40;42.40;;;;;;4997006;28;20507;-64
2022/11/30 08:01:21;;;;;;;3.90;3.60;;;19.40;42.40;;;;;;4998876;28;20822;-63
2022/11/30 08:03:47;;;;;;;3.40;3.17;;;19.40;42.40;;;;;;4986235;28;20424;-64
2022/11/30 08:06:18;;;;;;;3.57;3.27;;;19.40;42.40;;;;;;4977958;28;21129;-63
2022/11/30 08:08:44;;;;;;;4.47;4.07;;;19.40;42.50;;;;;;4987505;28;20477;-63
2022/11/30 08:11:13;;;;;;;3.47;3.20;;;19.30;42.30;;;;;;4981214;28;20478;-64
2022/11/30 08:13:39;;;;;;;3.73;3.43;;;19.40;42.50;;;;;;4982431;28;20456;-64
2022/11/30 08:16:07;;;;;;;3.93;3.63;;;19.40;42.40;;;;;;4987716;28;20918;-64
2022/11/30 08:18:32;;;;;;;3.43;3.23;;;19.40;42.40;;;;;;4982119;28;20339;-63
2022/11/30 08:21:03;;;;;;;3.70;3.40;;;19.40;42.50;;;;;;4981382;28;20499;-64
2022/11/30 08:23:31;;;;;;;3.67;3.37;;;19.40;42.40;;;;;;4983585;28;20236;-64
2022/11/30 08:26:02;;;;;;;3.20;3.00;;;19.40;42.50;;;;;;5000707;28;20953;-64
2022/11/30 08:28:29;;;;;;;2.83;2.73;;;19.30;43.10;;;;;;4993144;28;20461;-63
2022/11/30 08:30:59;;;;;;;3.57;3.37;;;19.40;42.40;;;;;;4982890;28;20940;-63
2022/11/30 08:33:24;;;;;;;4.17;3.80;;;19.40;42.50;;;;;;4983522;28;20432;-64
2022/11/30 08:35:50;;;;;;;3.30;3.10;;;19.30;42.40;;;;;;4980076;28;20441;-65
2022/11/30 08:38:15;;;;;;;3.43;3.20;;;19.30;42.40;;;;;;4978029;28;20231;-64
2022/11/30 08:40:41;;;;;;;3.63;3.37;;;19.30;42.40;;;;;;4987479;28;20220;-63
2022/11/30 08:43:06;;;;;;;3.33;3.03;;;19.30;42.50;;;;;;4994144;28;20226;-64
2022/11/30 08:45:32;;;;;;;4.37;4.00;;;19.30;42.50;;;;;;4986184;28;20235;-63
2022/11/30 08:47:57;;;;;;;3.90;3.50;;;19.30;42.50;;;;;;4980682;28;20220;-64
2022/11/30 08:50:23;;;;;;;3.70;3.50;;;19.30;42.50;;;;;;4984265;28;20299;-64
2022/11/30 08:52:48;;;;;;;3.20;3.00;;;19.30;42.50;;;;;;4989752;28;20581;-63
2022/11/30 08:55:14;;;;;;;3.63;3.33;;;19.30;42.50;;;;;;4981469;28;20285;-63
2022/11/30 08:57:39;;;;;;;3.40;3.20;;;19.30;43.00;;;;;;4998590;28;20315;-63
2022/11/30 09:00:06;;;;;;;3.70;3.43;;;19.30;42.60;;;;;;4990017;28;20279;-63
2022/11/30 09:02:31;;;;;;;3.10;2.90;;;19.30;42.50;;;;;;4997065;28;20227;-64
2022/11/30 09:04:57;;;;;;;3.90;3.70;;;19.30;42.60;;;;;;5001181;28;20456;-63
2022/11/30 09:07:22;;;;;;;2.90;2.70;;;19.30;42.50;;;;;;4984588;28;20215;-64
2022/11/30 09:09:48;;;;;;;3.33;3.13;;;19.30;42.60;;;;;;4991382;28;20239;-64
2022/11/30 09:12:13;;;;;;;2.90;2.70;;;19.30;42.60;;;;;;4997386;28;20558;-64
2022/11/30 09:14:39;;;;;;;3.37;2.93;;;19.30;42.60;;;;;;5002110;28;20242;-64
2022/11/30 09:17:04;;;;;;;3.20;3.00;;;19.30;42.60;;;;;;4982540;28;20231;-63
2022/11/30 09:19:30;;;;;;;3.03;2.83;;;19.30;42.60;;;;;;4984715;28;20239;-64
2022/11/30 09:21:55;;;;;;;3.00;2.80;;;19.30;42.60;;;;;;4983402;28;20307;-66
2022/11/30 09:24:21;;;;;;;4.20;3.80;;;19.30;42.60;;;;;;4992830;28;20223;-63
2022/11/30 09:26:47;;;;;;;3.63;3.43;;;19.30;42.60;;;;;;4993426;28;20215;-64
2022/11/30 09:29:12;;;;;;;3.87;3.43;;;19.30;42.50;;;;;;4986338;28;20263;-63
2022/11/30 09:31:38;;;;;;;3.43;2.90;;;19.30;42.60;;;;;;4990339;28;20524;-62
2022/11/30 09:34:03;;;;;;;5.13;4.73;;;19.30;42.60;;;;;;4984694;28;20629;-63
2022/11/30 09:36:29;;;;;;;3.73;3.43;;;19.30;42.60;;;;;;4985647;28;20266;-62
2022/11/30 09:38:55;;;;;;;3.27;3.07;;;19.30;42.50;;;;;;5002641;28;20227;-63
2022/11/30 09:41:27;;;;;;;3.30;3.07;;;19.30;42.50;;;;;;5009436;28;20836;-62
2022/11/30 09:43:59;;;;;;;3.60;3.40;;;19.30;42.50;;;;;;4985965;28;20522;-62
2022/11/30 09:46:36;;;;;;;7.80;3.87;;;19.30;42.60;;;;;;4998787;28;20487;-62
2022/11/30 09:49:11;;;;;;;2.90;2.70;;;19.30;42.50;;;;;;4987056;28;20440;-62
2022/11/30 09:51:47;;;;;;;3.47;3.27;;;19.30;42.50;;;;;;4992230;28;20432;-62
2022/11/30 09:54:15;;;;;;;4.90;3.00;;;19.30;42.50;;;;;;4990880;28;20453;-62
2022/11/30 09:56:43;;;;;;;3.70;3.33;;;19.30;42.50;;;;;;4990691;28;20450;-62
2022/11/30 09:59:19;;;;;;;3.27;2.90;;;19.30;43.10;;;;;;4988645;28;20441;-62
2022/11/30 10:01:47;;;;;;;3.20;3.00;;;19.30;42.50;;;;;;4993029;28;21066;-62
2022/11/30 10:04:24;;;;;;;3.70;3.40;;;19.30;42.50;;;;;;4994190;28;20812;-63
2022/11/30 10:07:12;;;;;;;3.37;3.17;;;19.30;42.50;;;;;;4977773;28;20461;-64
2022/11/30 10:10:08;;;;;;;3.70;3.50;;;19.30;42.60;;;;;;4998198;28;20444;-64
2022/11/30 10:12:41;;;;;;;3.80;3.50;;;19.30;42.50;;;;;;4987855;28;20432;-63
2022/11/30 10:15:38;;;;;;;3.03;2.83;;;19.30;42.50;;;;;;4983084;28;20469;-62
2022/11/30 10:18:21;;;;;;;2.90;2.70;;;19.30;42.60;;;;;;4980041;28;20440;-63
2022/11/30 10:21:15;;;;;;;3.43;3.23;;;19.30;42.60;;;;;;4997266;28;20447;-62
2022/11/30 10:23:53;;;;;;;3.27;3.07;;;19.30;42.60;;;;;;5003752;28;20452;-62
2022/11/30 10:26:34;;;;;;;3.40;3.20;;;19.30;42.60;;;;;;5000409;28;20427;-63
2022/11/30 10:29:17;;;;;;;3.70;3.40;;;19.30;42.60;;;;;;4989559;28;20460;-63
2022/11/30 10:31:46;;;;;;;3.70;3.50;;;19.30;42.60;;;;;;5000483;28;20805;-62
2022/11/30 10:34:24;;;;;;;3.77;3.57;;;19.30;42.60;;;;;;5000879;28;20443;-63
2022/11/30 10:36:57;;;;;;;3.17;2.97;;;19.30;42.60;;;;;;5001598;28;20427;-63
2022/11/30 10:39:38;;;;;;;3.50;3.30;;;19.30;42.70;;;;;;5000588;28;20479;-62
2022/11/30 10:42:21;;;;;;;4.20;3.60;;;19.30;42.70;;;;;;4991774;28;20440;-63
2022/11/30 10:45:08;;;;;;;3.27;3.07;;;19.30;42.70;;;;;;4987524;28;20894;-64
2022/11/30 10:47:35;;;;;;;3.43;3.23;;;19.30;42.70;;;;;;4997394;28;20454;-65
2022/11/30 10:50:03;;;;;;;3.73;3.43;;;19.30;42.70;;;;;;4995340;28;20419;-63
2022/11/30 10:52:36;;;;;;;3.30;3.10;;;19.30;42.70;;;;;;4996439;28;20552;-64
2022/11/30 10:55:11;;;;;;;3.47;3.27;;;19.30;42.70;;;;;;4997556;28;20449;-66
2022/11/30 10:57:37;;;;;;;3.60;3.40;;;19.30;42.80;;;;;;4997304;28;20432;-62
2022/11/30 11:00:05;;;;;;;3.63;3.43;;;19.30;42.70;;;;;;4996350;28;20504;-62
2022/11/30 11:02:36;;;;;;;4.33;3.70;;;19.30;42.80;;;;;;4991225;28;20436;-62
2022/11/30 11:05:16;;;;;;;4.67;4.27;;;19.30;42.80;;;;;;4986307;28;20432;-63
2022/11/30 11:07:49;;;;;;;3.70;3.50;;;19.30;42.70;;;;;;4985269;28;20455;-62
2022/11/30 11:10:26;;;;;;;3.30;3.10;;;19.30;42.80;;;;;;4982553;28;20464;-63
2022/11/30 11:12:53;;;;;;;3.70;3.40;;;19.30;42.80;;;;;;4978446;28;20454;-62
2022/11/30 11:15:26;;;;;;;3.43;3.23;;;19.30;42.80;;;;;;4984232;28;20440;-62
2022/11/30 11:17:52;;;;;;;3.43;3.20;;;19.30;42.80;;;;;;4990785;28;20939;-61
2022/11/30 11:20:34;;;;;;;3.63;3.23;;;19.30;42.80;;;;;;4981333;28;20538;-62
2022/11/30 11:23:02;;;;;;;3.93;3.63;;;19.30;42.80;;;;;;4974145;28;20457;-64
2022/11/30 11:25:35;;;;;;;3.67;3.47;;;19.30;42.90;;;;;;4980219;28;20431;-61
2022/11/30 11:28:23;;;;;;;3.37;3.17;;;19.20;42.70;;;;;;4978583;28;20442;-62
2022/11/30 11:30:53;;;;;;;3.50;3.30;;;19.20;42.70;;;;;;4985215;28;20438;-62
2022/11/30 11:33:28;;;;;;;3.00;2.80;;;19.20;42.80;;;;;;4993785;28;20428;-62
2022/11/30 11:36:14;;;;;;;4.27;3.87;;;19.20;42.80;;;;;;4983163;28;20437;-62
2022/11/30 11:38:45;;;;;;;4.33;4.03;;;19.20;42.80;;;;;;4981192;28;20488;-62
2022/11/30 11:41:30;;;;;;;3.90;3.60;;;19.20;42.80;;;;;;5011817;28;20439;-61
2022/11/30 11:44:21;;;;;;;3.77;3.57;;;19.20;42.80;;;;;;4993784;28;20465;-63
2022/11/30 11:47:01;;;;;;;3.70;3.50;;;19.20;42.80;;;;;;5002779;28;20458;-61
2022/11/30 11:49:35;;;;;;;4.57;4.27;;;19.20;42.80;;;;;;5000756;28;20438;-62
2022/11/30 11:52:14;;;;;;;4.33;4.00;;;19.20;42.70;;;;;;4997266;28;20438;-63
2022/11/30 11:55:05;;;;;;;4.60;4.30;;;19.20;42.70;;;;;;4982503;28;20433;-62
2022/11/30 11:57:45;;;;;;;3.90;3.60;;;19.20;42.70;;;;;;4978259;28;20439;-62
2022/11/30 12:00:19;;;;;;;4.23;3.93;;;19.20;42.70;;;;;;4977657;28;20459;-63
2022/11/30 12:03:17;;;;;;;3.93;3.73;;;19.20;42.70;;;;;;4975503;28;20440;-62
2022/11/30 12:06:08;;;;;;;3.70;3.50;;;19.20;42.70;;;;;;4973795;28;20414;-62
2022/11/30 12:08:59;;;;;;;4.97;3.97;;;19.20;42.70;;;;;;4991797;28;20449;-63
2022/11/30 12:11:40;;;;;;;4.03;3.73;;;19.20;42.70;;;;;;4980299;28;21093;-62
2022/11/30 12:14:13;;;;;;;3.73;3.50;;;19.20;42.80;;;;;;4965698;28;20458;-62
2022/11/30 12:17:16;;;;;;;5.03;4.60;;;19.20;42.80;;;;;;4969509;28;20509;-61
2022/11/30 12:20:10;;;;;;;6.50;4.40;;;19.20;42.70;;;;;;4977411;28;20443;-62
2022/11/30 12:22:41;;;;;;;4.47;4.17;;;19.20;42.70;;;;;;4974685;28;20429;-62
2022/11/30 12:25:26;;;;;;;4.20;4.00;;;19.20;42.80;;;;;;4969384;28;20476;-63
2022/11/30 12:28:16;;;;;;;4.97;4.60;;;19.20;42.80;;;;;;4971696;28;20429;-61
2022/11/30 12:31:22;;;;;;;3.83;3.63;;;19.20;42.80;;;;;;4973974;28;20803;-62
2022/11/30 12:34:18;;;;;;;5.90;4.57;;;19.20;42.70;;;;;;4966841;28;20532;-62
2022/11/30 12:36:52;;;;;;;4.30;4.00;;;19.20;42.70;;;;;;4967840;28;21025;-62
2022/11/30 12:39:26;;;;;;;4.63;4.30;;;19.20;42.80;;;;;;4978002;28;20439;-61
2022/11/30 12:42:04;;;;;;;4.50;4.20;;;19.20;42.80;;;;;;4969387;28;20445;-62
2022/11/30 12:44:50;;;;;;;5.00;4.60;;;19.20;42.80;;;;;;4969584;28;20535;-61
2022/11/30 12:47:40;;;;;;;5.03;4.73;;;19.20;42.80;;;;;;4974251;28;21016;-61
2022/11/30 12:50:41;;;;;;;5.83;5.43;;;19.20;42.80;;;;;;4979324;28;21046;-61
2022/11/30 12:53:29;;;;;;;5.10;4.60;;;19.20;42.80;;;;;;4967795;28;20440;-62
2022/11/30 12:56:15;;;;;;;9.73;5.33;;;19.20;42.80;;;;;;4971029;28;20463;-62
2022/11/30 12:59:03;;;;;;;5.43;4.97;;;19.20;42.80;;;;;;4988144;28;20431;-62
2022/11/30 13:01:33;;;;;;;5.63;4.60;;;19.20;42.80;;;;;;4988177;28;20789;-62
2022/11/30 13:04:27;;;;;;;5.10;4.70;;;19.20;42.90;;;;;;4987654;28;20448;-61
2022/11/30 13:07:18;;;;;;;5.07;4.73;;;19.20;42.90;;;;;;4974895;28;20453;-62